sensor_id;sensor_type;location;lat;lon;timestamp;pressure;altitude;pressure_sealevel;temperature;humidity
12759;BME280;20944;47.048;15.390;2024-02-04T00:00:11;98095.91;;;3.86;100.00
12759;BME280;20944;47.048;15.390;2024-02-04T00:02:40;98121.06;;;4.01;100.00
12759;BME280;20944;47.048;15.390;2024-02-04T00:05:08;98100.28;;;3.95;100.00
12759;BME280;20944;47.048;15.390;2024-02-04T00:07:37;98095.88;;;3.80;100.00
12759;BME280;20944;47.048;15.390;2024-02-04T00:10:06;98044.72;;;3.50;100.00
12759;BME280;20944;47.048;15.390;2024-02-04T00:12:36;98041.25;;;3.51;100.00
12759;BME280;20944;47.048;15.390;2024-02-04T00:15:05;98072.41;;;3.60;100.00
12759;BME280;20944;47.048;15.390;2024-02-04T00:17:33;98060.34;;;3.64;100.00
12759;BME280;20944;47.048;15.390;2024-02-04T00:20:03;98076.81;;;3.73;100.00
12759;BME280;20944;47.048;15.390;2024-02-04T00:22:32;98076.88;;;3.83;100.00
12759;BME280;20944;47.048;15.390;2024-02-04T00:25:01;98075.19;;;3.89;100.00
12759;BME280;20944;47.048;15.390;2024-02-04T00:27:32;98076.91;;;3.87;100.00
12759;BME280;20944;47.048;15.390;2024-02-04T00:30:02;98061.31;;;3.83;100.00
12759;BME280;20944;47.048;15.390;2024-02-04T00:32:31;98076.94;;;3.90;100.00
12759;BME280;20944;47.048;15.390;2024-02-04T00:34:59;98077.72;;;3.83;100.00
12759;BME280;20944;47.048;15.390;2024-02-04T00:37:28;98026.56;;;3.48;100.00
12759;BME280;20944;47.048;15.390;2024-02-04T00:39:56;98084.69;;;3.84;100.00
12759;BME280;20944;47.048;15.390;2024-02-04T00:42:24;98054.38;;;3.77;100.00
12759;BME280;20944;47.048;15.390;2024-02-04T00:44:53;98075.13;;;3.83;100.00
12759;BME280;20944;47.048;15.390;2024-02-04T00:47:23;98074.28;;;3.83;100.00
12759;BME280;20944;47.048;15.390;2024-02-04T00:49:52;98083.75;;;3.76;100.00
12759;BME280;20944;47.048;15.390;2024-02-04T00:52:21;98072.47;;;3.68;100.00
12759;BME280;20944;47.048;15.390;2024-02-04T00:54:50;98072.47;;;3.69;100.00
12759;BME280;20944;47.048;15.390;2024-02-04T00:57:18;98073.31;;;3.67;100.00
12759;BME280;20944;47.048;15.390;2024-02-04T00:59:47;98078.47;;;3.59;100.00
12759;BME280;20944;47.048;15.390;2024-02-04T01:02:17;98073.25;;;3.55;100.00
12759;BME280;20944;47.048;15.390;2024-02-04T01:04:47;98065.50;;;3.61;100.00
12759;BME280;20944;47.048;15.390;2024-02-04T01:07:17;98058.50;;;3.46;100.00
12759;BME280;20944;47.048;15.390;2024-02-04T01:09:46;98055.94;;;3.47;100.00
12759;BME280;20944;47.048;15.390;2024-02-04T01:12:14;98037.75;;;3.44;100.00
12759;BME280;20944;47.048;15.390;2024-02-04T01:14:43;98002.13;;;3.13;100.00
12759;BME280;20944;47.048;15.390;2024-02-04T01:17:11;98057.59;;;3.41;100.00
12759;BME280;20944;47.048;15.390;2024-02-04T01:19:40;98077.47;;;3.40;100.00
12759;BME280;20944;47.048;15.390;2024-02-04T01:22:10;98040.09;;;3.11;100.00
12759;BME280;20944;47.048;15.390;2024-02-04T01:24:38;98068.78;;;3.34;100.00
12759;BME280;20944;47.048;15.390;2024-02-04T01:27:07;98079.97;;;3.31;100.00
12759;BME280;20944;47.048;15.390;2024-02-04T01:29:35;98081.69;;;3.32;100.00
12759;BME280;20944;47.048;15.390;2024-02-04T01:32:04;98071.19;;;3.14;100.00
12759;BME280;20944;47.048;15.390;2024-02-04T01:34:33;98083.41;;;3.29;100.00
12759;BME280;20944;47.048;15.390;2024-02-04T01:37:01;98059.22;;;3.28;100.00
12759;BME280;20944;47.048;15.390;2024-02-04T01:39:32;98077.41;;;3.36;100.00
12759;BME280;20944;47.048;15.390;2024-02-04T01:42:00;98078.28;;;3.33;100.00
12759;BME280;20944;47.048;15.390;2024-02-04T01:44:29;98080.00;;;3.37;100.00
12759;BME280;20944;47.048;15.390;2024-02-04T01:46:58;98077.47;;;3.42;100.00
12759;BME280;20944;47.048;15.390;2024-02-04T01:49:26;98066.16;;;3.32;100.00
12759;BME280;20944;47.048;15.390;2024-02-04T01:51:55;98075.63;;;3.29;100.00
12759;BME280;20944;47.048;15.390;2024-02-04T01:54:25;98076.56;;;3.37;100.00
12759;BME280;20944;47.048;15.390;2024-02-04T01:56:55;98042.75;;;3.17;100.00
12759;BME280;20944;47.048;15.390;2024-02-04T01:59:24;98018.44;;;2.98;100.00
12759;BME280;20944;47.048;15.390;2024-02-04T02:01:58;98070.47;;;3.29;100.00
12759;BME280;20944;47.048;15.390;2024-02-04T02:04:27;98078.19;;;3.24;100.00
12759;BME280;20944;47.048;15.390;2024-02-04T02:06:56;98073.81;;;3.17;100.00
12759;BME280;20944;47.048;15.390;2024-02-04T02:09:27;98052.19;;;3.10;100.00
12759;BME280;20944;47.048;15.390;2024-02-04T02:12:03;98038.44;;;3.17;100.00
12759;BME280;20944;47.048;15.390;2024-02-04T02:14:36;98027.34;;;3.34;100.00
12759;BME280;20944;47.048;15.390;2024-02-04T02:17:10;98021.16;;;3.18;100.00
12759;BME280;20944;47.048;15.390;2024-02-04T02:19:48;98043.59;;;3.16;100.00
12759;BME280;20944;47.048;15.390;2024-02-04T02:22:28;98024.53;;;3.06;100.00
12759;BME280;20944;47.048;15.390;2024-02-04T02:24:58;98048.66;;;3.02;100.00
12759;BME280;20944;47.048;15.390;2024-02-04T02:27:27;98028.72;;;2.92;100.00
12759;BME280;20944;47.048;15.390;2024-02-04T02:29:56;98049.50;;;3.01;100.00
12759;BME280;20944;47.048;15.390;2024-02-04T02:32:24;98057.25;;;3.00;100.00
12759;BME280;20944;47.048;15.390;2024-02-04T02:34:53;98065.03;;;3.00;100.00
12759;BME280;20944;47.048;15.390;2024-02-04T02:37:27;98054.66;;;2.98;100.00
12759;BME280;20944;47.048;15.390;2024-02-04T02:40:03;98047.81;;;3.05;100.00
12759;BME280;20944;47.048;15.390;2024-02-04T02:42:34;98020.09;;;2.90;100.00
12759;BME280;20944;47.048;15.390;2024-02-04T02:45:06;98064.25;;;3.10;100.00
12759;BME280;20944;47.048;15.390;2024-02-04T02:47:37;98024.41;;;2.91;100.00
12759;BME280;20944;47.048;15.390;2024-02-04T02:50:07;98045.16;;;2.95;100.00
12759;BME280;20944;47.048;15.390;2024-02-04T02:52:37;98042.59;;;3.00;100.00
12759;BME280;20944;47.048;15.390;2024-02-04T02:55:07;98042.63;;;3.03;100.00
12759;BME280;20944;47.048;15.390;2024-02-04T02:57:35;98032.19;;;2.92;100.00
12759;BME280;20944;47.048;15.390;2024-02-04T03:00:05;98023.44;;;2.83;100.00
12759;BME280;20944;47.048;15.390;2024-02-04T03:02:34;98041.59;;;2.86;100.00
12759;BME280;20944;47.048;15.390;2024-02-04T03:05:03;98037.22;;;2.79;100.00
12759;BME280;20944;47.048;15.390;2024-02-04T03:07:32;98046.84;;;2.93;100.00
12759;BME280;20944;47.048;15.390;2024-02-04T03:10:00;98046.84;;;2.92;100.00
12759;BME280;20944;47.048;15.390;2024-02-04T03:12:31;98052.88;;;2.94;100.00
12759;BME280;20944;47.048;15.390;2024-02-04T03:14:59;98007.72;;;2.60;100.00
12759;BME280;20944;47.048;15.390;2024-02-04T03:17:28;98036.31;;;2.75;100.00
12759;BME280;20944;47.048;15.390;2024-02-04T03:19:56;98038.06;;;2.76;100.00
12759;BME280;20944;47.048;15.390;2024-02-04T03:22:25;98051.91;;;2.80;100.00
12759;BME280;20944;47.048;15.390;2024-02-04T03:24:53;98039.66;;;2.63;100.00
12759;BME280;20944;47.048;15.390;2024-02-04T03:27:22;97993.81;;;2.50;100.00
12759;BME280;20944;47.048;15.390;2024-02-04T03:29:51;98032.19;;;2.94;100.00
12759;BME280;20944;47.048;15.390;2024-02-04T03:32:20;98024.47;;;2.95;100.00
12759;BME280;20944;47.048;15.390;2024-02-04T03:34:48;97983.59;;;2.61;100.00
12759;BME280;20944;47.048;15.390;2024-02-04T03:37:17;98019.13;;;2.82;100.00
12759;BME280;20944;47.048;15.390;2024-02-04T03:39:45;97997.50;;;2.72;100.00
12759;BME280;20944;47.048;15.390;2024-02-04T03:42:13;98013.94;;;2.80;100.00
12759;BME280;20944;47.048;15.390;2024-02-04T03:44:42;98000.94;;;2.73;100.00
12759;BME280;20944;47.048;15.390;2024-02-04T03:47:11;97997.56;;;2.80;100.00
12759;BME280;20944;47.048;15.390;2024-02-04T03:49:40;97963.78;;;2.63;100.00
12759;BME280;20944;47.048;15.390;2024-02-04T03:52:09;97959.38;;;2.53;100.00
12759;BME280;20944;47.048;15.390;2024-02-04T03:54:37;98006.25;;;2.85;100.00
12759;BME280;20944;47.048;15.390;2024-02-04T03:57:06;97986.19;;;2.59;100.00
12759;BME280;20944;47.048;15.390;2024-02-04T03:59:34;98025.16;;;2.78;100.00
12759;BME280;20944;47.048;15.390;2024-02-04T04:02:03;97879.44;;;1.86;100.00
12759;BME280;20944;47.048;15.390;2024-02-04T04:04:33;98018.31;;;2.86;100.00
12759;BME280;20944;47.048;15.390;2024-02-04T04:07:02;98005.31;;;2.78;100.00
12759;BME280;20944;47.048;15.390;2024-02-04T04:09:31;98022.56;;;2.81;100.00
12759;BME280;20944;47.048;15.390;2024-02-04T04:11:59;98026.03;;;2.78;100.00
12759;BME280;20944;47.048;15.390;2024-02-04T04:14:28;98027.69;;;2.76;100.00
12759;BME280;20944;47.048;15.390;2024-02-04T04:16:56;98030.34;;;2.81;100.00
12759;BME280;20944;47.048;15.390;2024-02-04T04:19:24;97991.34;;;2.62;100.00
12759;BME280;20944;47.048;15.390;2024-02-04T04:21:54;98034.66;;;2.80;100.00
12759;BME280;20944;47.048;15.390;2024-02-04T04:24:24;98046.78;;;2.84;100.00
12759;BME280;20944;47.048;15.390;2024-02-04T04:26:52;98050.22;;;2.85;100.00
12759;BME280;20944;47.048;15.390;2024-02-04T04:29:21;98025.97;;;2.75;100.00
12759;BME280;20944;47.048;15.390;2024-02-04T04:31:49;98026.81;;;2.73;100.00
12759;BME280;20944;47.048;15.390;2024-02-04T04:34:18;97980.84;;;2.44;100.00
12759;BME280;20944;47.048;15.390;2024-02-04T04:36:47;98034.66;;;2.80;100.00
12759;BME280;20944;47.048;15.390;2024-02-04T04:39:17;97995.66;;;2.60;100.00
12759;BME280;20944;47.048;15.390;2024-02-04T04:41:45;98029.47;;;2.77;100.00
12759;BME280;20944;47.048;15.390;2024-02-04T04:44:13;98041.59;;;2.86;100.00
12759;BME280;20944;47.048;15.390;2024-02-04T04:46:42;98018.38;;;2.95;100.00
12759;BME280;20944;47.048;15.390;2024-02-04T04:49:10;98010.56;;;2.84;100.00
12759;BME280;20944;47.048;15.390;2024-02-04T04:51:39;98010.63;;;2.95;100.00
12759;BME280;20944;47.048;15.390;2024-02-04T04:54:07;98003.69;;;2.89;100.00
12759;BME280;20944;47.048;15.390;2024-02-04T04:56:39;97981.13;;;2.75;100.00
12759;BME280;20944;47.048;15.390;2024-02-04T04:59:09;98030.59;;;3.08;100.00
12759;BME280;20944;47.048;15.390;2024-02-04T05:01:37;98034.00;;;3.03;100.00
12759;BME280;20944;47.048;15.390;2024-02-04T05:04:12;98030.56;;;3.05;100.00
12759;BME280;20944;47.048;15.390;2024-02-04T05:06:41;98039.19;;;3.04;100.00
12759;BME280;20944;47.048;15.390;2024-02-04T05:09:10;98020.09;;;2.90;100.00
12759;BME280;20944;47.048;15.390;2024-02-04T05:11:39;97942.84;;;2.38;100.00
12759;BME280;20944;47.048;15.390;2024-02-04T05:14:08;98053.00;;;3.06;100.00
12759;BME280;20944;47.048;15.390;2024-02-04T05:16:36;98059.84;;;3.00;100.00
12759;BME280;20944;47.048;15.390;2024-02-04T05:19:05;98042.41;;;2.80;100.00
12759;BME280;20944;47.048;15.390;2024-02-04T05:21:33;98068.50;;;3.03;100.00
12759;BME280;20944;47.048;15.390;2024-02-04T05:24:05;98046.91;;;2.98;100.00
12759;BME280;20944;47.048;15.390;2024-02-04T05:26:34;97960.94;;;2.35;100.00
12759;BME280;20944;47.048;15.390;2024-02-04T05:29:04;98059.59;;;2.74;100.00
12759;BME280;20944;47.048;15.390;2024-02-04T05:31:32;98036.06;;;2.51;100.00
12759;BME280;20944;47.048;15.390;2024-02-04T05:34:05;98038.78;;;2.61;100.00
12759;BME280;20944;47.048;15.390;2024-02-04T05:36:34;97976.41;;;2.31;100.00
12759;BME280;20944;47.048;15.390;2024-02-04T05:39:09;98067.97;;;2.51;100.00
12759;BME280;20944;47.048;15.390;2024-02-04T05:41:38;98044.69;;;2.51;100.00
12759;BME280;20944;47.048;15.390;2024-02-04T05:44:09;98029.09;;;2.42;100.00
12759;BME280;20944;47.048;15.390;2024-02-04T05:46:37;98055.88;;;2.49;100.00
12759;BME280;20944;47.048;15.390;2024-02-04T05:49:06;97949.19;;;1.86;100.00
12759;BME280;20944;47.048;15.390;2024-02-04T05:51:38;98058.59;;;2.59;100.00
12759;BME280;20944;47.048;15.390;2024-02-04T05:54:08;98052.50;;;2.54;100.00
12759;BME280;20944;47.048;15.390;2024-02-04T05:56:36;98078.59;;;2.76;100.00
12759;BME280;20944;47.048;15.390;2024-02-04T05:59:04;98057.03;;;2.75;100.00
12759;BME280;20944;47.048;15.390;2024-02-04T06:01:34;98059.66;;;2.77;100.00
12759;BME280;20944;47.048;15.390;2024-02-04T06:04:03;98073.53;;;2.88;100.00
12759;BME280;20944;47.048;15.390;2024-02-04T06:06:31;98045.84;;;2.79;100.00
12759;BME280;20944;47.048;15.390;2024-02-04T06:09:00;98044.25;;;2.92;100.00
12759;BME280;20944;47.048;15.390;2024-02-04T06:11:29;98061.63;;;3.04;100.00
12759;BME280;20944;47.048;15.390;2024-02-04T06:13:57;98073.69;;;3.03;100.00
12759;BME280;20944;47.048;15.390;2024-02-04T06:16:26;98070.25;;;3.07;100.00
12759;BME280;20944;47.048;15.390;2024-02-04T06:18:55;98087.63;;;3.20;100.00
12759;BME280;20944;47.048;15.390;2024-02-04T06:21:25;98039.09;;;2.95;100.00
12759;BME280;20944;47.048;15.390;2024-02-04T06:23:53;98079.84;;;3.16;100.00
12759;BME280;20944;47.048;15.390;2024-02-04T06:26:22;98071.16;;;3.11;100.00
12759;BME280;20944;47.048;15.390;2024-02-04T06:28:50;98058.97;;;2.99;100.00
12759;BME280;20944;47.048;15.390;2024-02-04T06:31:19;98073.75;;;3.12;100.00
12759;BME280;20944;47.048;15.390;2024-02-04T06:33:47;98078.03;;;3.07;100.00
12759;BME280;20944;47.048;15.390;2024-02-04T06:36:18;98091.00;;;3.09;100.00
12759;BME280;20944;47.048;15.390;2024-02-04T06:38:46;98065.88;;;2.97;100.00
12759;BME280;20944;47.048;15.390;2024-02-04T06:41:14;98103.13;;;3.14;100.00
12759;BME280;20944;47.048;15.390;2024-02-04T06:43:43;98102.28;;;3.17;100.00
12759;BME280;20944;47.048;15.390;2024-02-04T06:46:11;98122.94;;;3.12;100.00
12759;BME280;20944;47.048;15.390;2024-02-04T06:48:40;98123.88;;;3.17;100.00
12759;BME280;20944;47.048;15.390;2024-02-04T06:51:08;98117.88;;;3.24;100.00
12759;BME280;20944;47.048;15.390;2024-02-04T06:53:38;98113.69;;;3.36;100.00
12759;BME280;20944;47.048;15.390;2024-02-04T06:56:07;98117.19;;;3.45;100.00
12759;BME280;20944;47.048;15.390;2024-02-04T06:58:37;98090.25;;;3.23;100.00
12759;BME280;20944;47.048;15.390;2024-02-04T07:01:05;98121.44;;;3.37;100.00
12759;BME280;20944;47.048;15.390;2024-02-04T07:03:34;98135.25;;;3.36;100.00
12759;BME280;20944;47.048;15.390;2024-02-04T07:06:03;98139.56;;;3.34;100.00
12759;BME280;20944;47.048;15.390;2024-02-04T07:08:32;98153.38;;;3.36;100.00
12759;BME280;20944;47.048;15.390;2024-02-04T07:11:02;98117.94;;;3.29;100.00
12759;BME280;20944;47.048;15.390;2024-02-04T07:13:30;98136.34;;;3.61;100.00
12759;BME280;20944;47.048;15.390;2024-02-04T07:15:59;98127.69;;;3.59;100.00
12759;BME280;20944;47.048;15.390;2024-02-04T07:18:28;98097.31;;;3.41;100.00
12759;BME280;20944;47.048;15.390;2024-02-04T07:20:56;98126.88;;;3.66;100.00
12759;BME280;20944;47.048;15.390;2024-02-04T07:23:25;98116.56;;;3.74;100.00
12759;BME280;20944;47.048;15.390;2024-02-04T07:25:53;98116.66;;;3.85;100.00
12759;BME280;20944;47.048;15.390;2024-02-04T07:28:23;98127.97;;;4.02;100.00
12759;BME280;20944;47.048;15.390;2024-02-04T07:30:51;98129.75;;;4.09;100.00
12759;BME280;20944;47.048;15.390;2024-02-04T07:33:20;98101.22;;;4.07;100.00
12759;BME280;20944;47.048;15.390;2024-02-04T07:35:49;98108.25;;;4.33;100.00
12759;BME280;20944;47.048;15.390;2024-02-04T07:38:17;98094.38;;;4.23;100.00
12759;BME280;20944;47.048;15.390;2024-02-04T07:40:45;98111.72;;;4.33;100.00
12759;BME280;20944;47.048;15.390;2024-02-04T07:43:14;98128.16;;;4.36;100.00
12759;BME280;20944;47.048;15.390;2024-02-04T07:45:44;98136.81;;;4.35;100.00
12759;BME280;20944;47.048;15.390;2024-02-04T07:48:12;98120.41;;;4.42;100.00
12759;BME280;20944;47.048;15.390;2024-02-04T07:50:40;98130.78;;;4.43;100.00
12759;BME280;20944;47.048;15.390;2024-02-04T07:53:09;98141.16;;;4.42;100.00
12759;BME280;20944;47.048;15.390;2024-02-04T07:55:37;98133.38;;;4.40;100.00
12759;BME280;20944;47.048;15.390;2024-02-04T07:58:06;98149.88;;;4.57;100.00
12759;BME280;20944;47.048;15.390;2024-02-04T08:00:34;98135.19;;;4.63;100.00
12759;BME280;20944;47.048;15.390;2024-02-04T08:03:04;98137.84;;;4.72;100.00
12759;BME280;20944;47.048;15.390;2024-02-04T08:05:33;98136.13;;;4.83;100.00
12759;BME280;20944;47.048;15.390;2024-02-04T08:08:03;98136.19;;;5.01;100.00
12759;BME280;20944;47.048;15.390;2024-02-04T08:10:31;98121.50;;;5.16;100.00
12759;BME280;20944;47.048;15.390;2024-02-04T08:13:00;98113.72;;;5.28;100.00
12759;BME280;20944;47.048;15.390;2024-02-04T08:15:29;98117.19;;;5.37;100.00
12759;BME280;20944;47.048;15.390;2024-02-04T08:17:57;98112.84;;;5.52;100.00
12759;BME280;20944;47.048;15.390;2024-02-04T08:20:27;98119.78;;;5.71;100.00
12759;BME280;20944;47.048;15.390;2024-02-04T08:22:55;98118.91;;;5.97;100.00
12759;BME280;20944;47.048;15.390;2024-02-04T08:25:24;98116.28;;;6.15;100.00
12759;BME280;20944;47.048;15.390;2024-02-04T08:27:52;98098.97;;;6.11;100.00
12759;BME280;20944;47.048;15.390;2024-02-04T08:30:24;98098.94;;;6.23;100.00
12759;BME280;20944;47.048;15.390;2024-02-04T08:32:53;98052.13;;;6.08;100.00
12759;BME280;20944;47.048;15.390;2024-02-04T08:35:22;98124.00;;;6.48;100.00
12759;BME280;20944;47.048;15.390;2024-02-04T08:37:52;98104.06;;;6.49;100.00
12759;BME280;20944;47.048;15.390;2024-02-04T08:40:20;98114.41;;;6.54;100.00
12759;BME280;20944;47.048;15.390;2024-02-04T08:42:49;98110.13;;;6.48;100.00
12759;BME280;20944;47.048;15.390;2024-02-04T08:45:17;98100.53;;;6.53;100.00
12759;BME280;20944;47.048;15.390;2024-02-04T08:47:46;98106.66;;;6.47;100.00
12759;BME280;20944;47.048;15.390;2024-02-04T08:50:14;98110.09;;;6.56;100.00
12759;BME280;20944;47.048;15.390;2024-02-04T08:52:43;98098.72;;;6.72;100.00
12759;BME280;20944;47.048;15.390;2024-02-04T08:55:13;98116.00;;;6.88;100.00
12759;BME280;20944;47.048;15.390;2024-02-04T08:57:41;98121.94;;;7.10;100.00
12759;BME280;20944;47.048;15.390;2024-02-04T09:00:11;98128.75;;;7.34;100.00
12759;BME280;20944;47.048;15.390;2024-02-04T09:02:40;98117.38;;;7.46;100.00
12759;BME280;20944;47.048;15.390;2024-02-04T09:05:08;98132.91;;;7.63;100.00
12759;BME280;20944;47.048;15.390;2024-02-04T09:07:37;98124.16;;;7.67;100.00
12759;BME280;20944;47.048;15.390;2024-02-04T09:10:07;98123.25;;;7.71;100.00
12759;BME280;20944;47.048;15.390;2024-02-04T09:12:38;98112.94;;;7.58;100.00
12759;BME280;20944;47.048;15.390;2024-02-04T09:15:07;98113.03;;;7.49;100.00
12759;BME280;20944;47.048;15.390;2024-02-04T09:17:35;98122.63;;;7.43;100.00
12759;BME280;20944;47.048;15.390;2024-02-04T09:20:05;98102.75;;;7.29;100.00
12759;BME280;20944;47.048;15.390;2024-02-04T09:22:35;98108.78;;;7.36;100.00
12759;BME280;20944;47.048;15.390;2024-02-04T09:25:04;98114.75;;;7.49;100.00
12759;BME280;20944;47.048;15.390;2024-02-04T09:27:33;98097.22;;;7.66;100.00
12759;BME280;20944;47.048;15.390;2024-02-04T09:30:04;98087.28;;;8.03;100.00
12759;BME280;20944;47.048;15.390;2024-02-04T09:32:33;98093.97;;;8.32;100.00
12759;BME280;20944;47.048;15.390;2024-02-04T09:35:01;98089.34;;;8.57;100.00
12759;BME280;20944;47.048;15.390;2024-02-04T09:37:30;98096.81;;;8.84;100.00
12759;BME280;20944;47.048;15.390;2024-02-04T09:39:59;98066.13;;;9.00;100.00
12759;BME280;20944;47.048;15.390;2024-02-04T09:42:28;98090.84;;;9.36;100.00
12759;BME280;20944;47.048;15.390;2024-02-04T09:44:57;98086.00;;;9.66;100.00
12759;BME280;20944;47.048;15.390;2024-02-04T09:47:28;98084.63;;;9.96;100.00
12759;BME280;20944;47.048;15.390;2024-02-04T09:49:57;97989.97;;;9.71;100.00
12759;BME280;20944;47.048;15.390;2024-02-04T09:52:29;98066.28;;;10.44;96.01
12759;BME280;20944;47.048;15.390;2024-02-04T09:55:00;98078.63;;;10.79;95.10
12759;BME280;20944;47.048;15.390;2024-02-04T09:57:29;98082.41;;;11.07;91.38
12759;BME280;20944;47.048;15.390;2024-02-04T09:59:58;98073.25;;;11.25;89.53
12759;BME280;20944;47.048;15.390;2024-02-04T10:02:29;98070.16;;;11.45;87.49
12759;BME280;20944;47.048;15.390;2024-02-04T10:04:59;98089.50;;;11.75;85.78
12759;BME280;20944;47.048;15.390;2024-02-04T10:07:28;98053.63;;;11.76;82.47
12759;BME280;20944;47.048;15.390;2024-02-04T10:09:57;98095.50;;;12.16;79.42
12759;BME280;20944;47.048;15.390;2024-02-04T10:12:26;98089.97;;;12.27;78.57
12759;BME280;20944;47.048;15.390;2024-02-04T10:14:54;98099.28;;;12.38;78.16
12759;BME280;20944;47.048;15.390;2024-02-04T10:17:23;98078.81;;;12.50;75.40
12759;BME280;20944;47.048;15.390;2024-02-04T10:19:53;98071.66;;;12.55;73.68
12759;BME280;20944;47.048;15.390;2024-02-04T10:22:22;98071.31;;;12.67;74.49
12759;BME280;20944;47.048;15.390;2024-02-04T10:24:50;98068.53;;;12.72;73.14
12759;BME280;20944;47.048;15.390;2024-02-04T10:27:20;98069.13;;;12.81;72.18
12759;BME280;20944;47.048;15.390;2024-02-04T10:30:02;98062.69;;;12.91;72.91
12759;BME280;20944;47.048;15.390;2024-02-04T10:32:31;98047.41;;;13.04;74.49
12759;BME280;20944;47.048;15.390;2024-02-04T10:35:01;98039.25;;;13.12;72.51
12759;BME280;20944;47.048;15.390;2024-02-04T10:37:30;98044.38;;;13.16;69.81
12759;BME280;20944;47.048;15.390;2024-02-04T10:39:58;98040.69;;;13.23;71.04
12759;BME280;20944;47.048;15.390;2024-02-04T10:42:35;98025.50;;;13.32;70.71
12759;BME280;20944;47.048;15.390;2024-02-04T10:45:08;98008.13;;;13.26;69.79
12759;BME280;20944;47.048;15.390;2024-02-04T10:47:38;98019.16;;;13.37;69.66
12759;BME280;20944;47.048;15.390;2024-02-04T10:50:12;98022.63;;;13.39;69.11
12759;BME280;20944;47.048;15.390;2024-02-04T10:52:53;98013.91;;;13.37;70.94
12759;BME280;20944;47.048;15.390;2024-02-04T10:55:26;98011.28;;;13.37;68.33
12759;BME280;20944;47.048;15.390;2024-02-04T10:57:57;98021.06;;;13.34;71.36
12759;BME280;20944;47.048;15.390;2024-02-04T11:00:43;98002.66;;;13.32;70.11
12759;BME280;20944;47.048;15.390;2024-02-04T11:03:13;97991.94;;;13.38;69.23
12759;BME280;20944;47.048;15.390;2024-02-04T11:05:48;98001.69;;;13.61;70.28
12759;BME280;20944;47.048;15.390;2024-02-04T11:08:18;98006.41;;;13.78;66.84
12759;BME280;20944;47.048;15.390;2024-02-04T11:10:47;97997.16;;;13.91;66.45
12759;BME280;20944;47.048;15.390;2024-02-04T11:13:29;97990.63;;;14.01;65.06
12759;BME280;20944;47.048;15.390;2024-02-04T11:16:18;97997.88;;;14.20;65.78
12759;BME280;20944;47.048;15.390;2024-02-04T11:18:58;97999.03;;;14.36;62.72
12759;BME280;20944;47.048;15.390;2024-02-04T11:21:49;97989.06;;;14.44;61.46
12759;BME280;20944;47.048;15.390;2024-02-04T11:24:36;97902.03;;;13.99;60.75
12759;BME280;20944;47.048;15.390;2024-02-04T11:27:12;97972.50;;;14.41;61.01
12759;BME280;20944;47.048;15.390;2024-02-04T11:29:59;97948.41;;;14.26;61.43
12759;BME280;20944;47.048;15.390;2024-02-04T11:32:30;97949.25;;;14.28;60.00
12759;BME280;20944;47.048;15.390;2024-02-04T11:34:59;97956.56;;;14.20;61.88
12759;BME280;20944;47.048;15.390;2024-02-04T11:37:31;97965.06;;;14.28;62.70
12759;BME280;20944;47.048;15.390;2024-02-04T11:40:00;97955.63;;;14.45;61.12
12759;BME280;20944;47.048;15.390;2024-02-04T11:42:32;97959.56;;;14.58;63.58
12759;BME280;20944;47.048;15.390;2024-02-04T11:45:08;97960.13;;;14.66;62.01
12759;BME280;20944;47.048;15.390;2024-02-04T11:47:38;97948.13;;;14.81;61.76
12759;BME280;20944;47.048;15.390;2024-02-04T11:50:11;97943.97;;;14.97;67.41
12759;BME280;20944;47.048;15.390;2024-02-04T11:52:52;97843.94;;;14.69;66.17
12759;BME280;20944;47.048;15.390;2024-02-04T11:55:44;97950.22;;;15.37;59.95
12759;BME280;20944;47.048;15.390;2024-02-04T11:58:23;97938.81;;;15.36;58.96
12759;BME280;20944;47.048;15.390;2024-02-04T12:01:05;97925.25;;;15.24;58.82
12759;BME280;20944;47.048;15.390;2024-02-04T12:03:45;97917.44;;;15.21;59.47
12759;BME280;20944;47.048;15.390;2024-02-04T12:06:21;97913.00;;;15.01;58.08
12759;BME280;20944;47.048;15.390;2024-02-04T12:09:12;97853.19;;;14.57;58.66
12759;BME280;20944;47.048;15.390;2024-02-04T12:11:49;97915.59;;;15.02;60.29
12759;BME280;20944;47.048;15.390;2024-02-04T12:14:29;97921.28;;;15.14;59.20
12759;BME280;20944;47.048;15.390;2024-02-04T12:17:08;97899.22;;;15.15;58.23
12759;BME280;20944;47.048;15.390;2024-02-04T12:20:04;97892.41;;;15.31;56.87
12759;BME280;20944;47.048;15.390;2024-02-04T12:22:44;97898.41;;;15.34;56.80
12759;BME280;20944;47.048;15.390;2024-02-04T12:25:27;97813.97;;;14.92;56.55
12759;BME280;20944;47.048;15.390;2024-02-04T12:28:18;97868.91;;;15.25;57.04
12759;BME280;20944;47.048;15.390;2024-02-04T12:31:06;97887.91;;;15.33;58.26
12759;BME280;20944;47.048;15.390;2024-02-04T12:33:37;97873.72;;;15.35;56.21
12759;BME280;20944;47.048;15.390;2024-02-04T12:36:19;97858.59;;;15.19;57.43
12759;BME280;20944;47.048;15.390;2024-02-04T12:38:58;97865.72;;;14.96;57.12
12759;BME280;20944;47.048;15.390;2024-02-04T12:41:51;97857.97;;;14.92;55.96
12759;BME280;20944;47.048;15.390;2024-02-04T12:44:31;97872.03;;;14.92;56.00
12759;BME280;20944;47.048;15.390;2024-02-04T12:47:13;97864.44;;;14.84;57.88
12759;BME280;20944;47.048;15.390;2024-02-04T12:49:49;97884.13;;;14.98;58.06
12759;BME280;20944;47.048;15.390;2024-02-04T12:52:30;97864.38;;;15.06;57.32
12759;BME280;20944;47.048;15.390;2024-02-04T12:55:20;97868.03;;;15.45;56.42
12759;BME280;20944;47.048;15.390;2024-02-04T12:58:08;97865.94;;;15.73;55.71
12759;BME280;20944;47.048;15.390;2024-02-04T13:01:08;97829.59;;;15.78;55.42
12759;BME280;20944;47.048;15.390;2024-02-04T13:03:56;97795.25;;;15.78;56.55
12759;BME280;20944;47.048;15.390;2024-02-04T13:09:34;97832.38;;;15.94;55.67
12759;BME280;20944;47.048;15.390;2024-02-04T13:12:14;97834.94;;;16.14;54.30